sensor_id;sensor_type;location;lat;lon;timestamp;pressure;altitude;pressure_sealevel;temperature;humidity
67397;BME280;57728;50.448;18.824;2023-11-19T00:00:02;98290.25;;;1.17;72.89
67397;BME280;57728;50.448;18.824;2023-11-19T00:02:08;98360.91;;;1.59;73.11
67397;BME280;57728;50.448;18.824;2023-11-19T00:04:10;98347.81;;;1.56;73.38
67397;BME280;57728;50.448;18.824;2023-11-19T00:06:11;98312.88;;;1.31;73.52
67397;BME280;57728;50.448;18.824;2023-11-19T00:08:13;98354.50;;;1.44;73.43
67397;BME280;57728;50.448;18.824;2023-11-19T00:10:16;98341.78;;;1.46;73.61
67397;BME280;57728;50.448;18.824;2023-11-19T00:12:21;98333.00;;;1.35;73.52
67397;BME280;57728;50.448;18.824;2023-11-19T00:14:23;98351.84;;;1.52;73.90
67397;BME280;57728;50.448;18.824;2023-11-19T00:16:27;98357.22;;;1.52;73.77
67397;BME280;57728;50.448;18.824;2023-11-19T00:18:28;98321.28;;;1.36;74.03
67397;BME280;57728;50.448;18.824;2023-11-19T00:20:30;98303.50;;;1.27;73.93
67397;BME280;57728;50.448;18.824;2023-11-19T00:22:32;98328.38;;;1.46;74.02
67397;BME280;57728;50.448;18.824;2023-11-19T00:24:33;98331.03;;;1.54;73.98
67397;BME280;57728;50.448;18.824;2023-11-19T00:26:35;98321.31;;;1.45;73.84
67397;BME280;57728;50.448;18.824;2023-11-19T00:28:37;98345.13;;;1.56;73.84
67397;BME280;57728;50.448;18.824;2023-11-19T00:30:39;98330.53;;;1.42;74.10
67397;BME280;57728;50.448;18.824;2023-11-19T00:32:42;98286.88;;;1.15;73.95
67397;BME280;57728;50.448;18.824;2023-11-19T00:34:44;98332.38;;;1.42;73.74
67397;BME280;57728;50.448;18.824;2023-11-19T00:36:46;98353.19;;;1.56;73.93
67397;BME280;57728;50.448;18.824;2023-11-19T00:38:47;98294.41;;;1.20;73.90
67397;BME280;57728;50.448;18.824;2023-11-19T00:40:49;98354.34;;;1.53;73.90
67397;BME280;57728;50.448;18.824;2023-11-19T00:42:50;98348.81;;;1.55;73.95
67397;BME280;57728;50.448;18.824;2023-11-19T00:44:52;98296.94;;;1.22;74.22
67397;BME280;57728;50.448;18.824;2023-11-19T00:46:54;98355.19;;;1.62;74.14
67397;BME280;57728;50.448;18.824;2023-11-19T00:48:55;98326.16;;;1.49;74.09
67397;BME280;57728;50.448;18.824;2023-11-19T00:50:58;98312.09;;;1.47;74.01
67397;BME280;57728;50.448;18.824;2023-11-19T00:53:01;98343.50;;;1.80;73.87
67397;BME280;57728;50.448;18.824;2023-11-19T00:55:04;98332.06;;;1.86;73.67
67397;BME280;57728;50.448;18.824;2023-11-19T00:57:07;98337.78;;;1.91;73.64
67397;BME280;57728;50.448;18.824;2023-11-19T00:59:10;98318.81;;;1.84;73.48
67397;BME280;57728;50.448;18.824;2023-11-19T01:01:11;98341.47;;;1.98;73.37
67397;BME280;57728;50.448;18.824;2023-11-19T01:03:13;98287.47;;;1.68;73.21
67397;BME280;57728;50.448;18.824;2023-11-19T01:05:16;98305.22;;;1.78;72.91
67397;BME280;57728;50.448;18.824;2023-11-19T01:07:18;98330.03;;;1.88;73.21
67397;BME280;57728;50.448;18.824;2023-11-19T01:09:19;98243.66;;;1.35;73.12
67397;BME280;57728;50.448;18.824;2023-11-19T01:11:22;98308.41;;;1.81;73.16
67397;BME280;57728;50.448;18.824;2023-11-19T01:13:24;98280.91;;;1.63;73.27
67397;BME280;57728;50.448;18.824;2023-11-19T01:15:25;98204.25;;;1.11;73.25
67397;BME280;57728;50.448;18.824;2023-11-19T01:17:27;98316.81;;;1.78;73.41
67397;BME280;57728;50.448;18.824;2023-11-19T01:19:28;98296.84;;;1.64;73.18
67397;BME280;57728;50.448;18.824;2023-11-19T01:21:31;98297.50;;;1.58;73.40
67397;BME280;57728;50.448;18.824;2023-11-19T01:23:33;98272.50;;;1.41;73.44
67397;BME280;57728;50.448;18.824;2023-11-19T01:25:34;98292.13;;;1.58;73.35
67397;BME280;57728;50.448;18.824;2023-11-19T01:27:36;98262.78;;;1.32;73.60
67397;BME280;57728;50.448;18.824;2023-11-19T01:29:38;98285.44;;;1.46;73.55
67397;BME280;57728;50.448;18.824;2023-11-19T01:31:41;98269.81;;;1.41;73.59
67397;BME280;57728;50.448;18.824;2023-11-19T01:33:43;98256.56;;;1.23;73.79
67397;BME280;57728;50.448;18.824;2023-11-19T01:35:45;98264.78;;;1.30;73.84
67397;BME280;57728;50.448;18.824;2023-11-19T01:37:46;98277.69;;;1.26;74.09
67397;BME280;57728;50.448;18.824;2023-11-19T01:39:47;98239.75;;;0.96;74.08
67397;BME280;57728;50.448;18.824;2023-11-19T01:41:49;98268.28;;;1.22;74.28
67397;BME280;57728;50.448;18.824;2023-11-19T01:43:50;98262.25;;;1.20;74.04
67397;BME280;57728;50.448;18.824;2023-11-19T01:45:52;98243.28;;;1.05;74.08
67397;BME280;57728;50.448;18.824;2023-11-19T01:47:55;98241.44;;;1.06;74.28
67397;BME280;57728;50.448;18.824;2023-11-19T01:49:56;98213.56;;;0.82;74.15
67397;BME280;57728;50.448;18.824;2023-11-19T01:51:59;98260.56;;;1.11;74.35
67397;BME280;57728;50.448;18.824;2023-11-19T01:54:01;98252.16;;;1.06;74.43
67397;BME280;57728;50.448;18.824;2023-11-19T01:56:04;98228.16;;;0.88;74.56
67397;BME280;57728;50.448;18.824;2023-11-19T01:58:11;98244.78;;;0.99;74.76
67397;BME280;57728;50.448;18.824;2023-11-19T02:00:14;98241.41;;;0.97;74.76
67397;BME280;57728;50.448;18.824;2023-11-19T02:02:18;98233.38;;;0.97;74.85
67397;BME280;57728;50.448;18.824;2023-11-19T02:04:23;98201.03;;;0.82;74.75
67397;BME280;57728;50.448;18.824;2023-11-19T02:06:27;98199.53;;;0.88;75.02
67397;BME280;57728;50.448;18.824;2023-11-19T02:08:30;98185.44;;;0.86;75.06
67397;BME280;57728;50.448;18.824;2023-11-19T02:10:31;98172.34;;;0.75;75.30
67397;BME280;57728;50.448;18.824;2023-11-19T02:12:33;98151.59;;;0.68;75.40
67397;BME280;57728;50.448;18.824;2023-11-19T02:14:36;98172.88;;;0.78;75.28
67397;BME280;57728;50.448;18.824;2023-11-19T02:16:37;98135.47;;;0.52;75.45
67397;BME280;57728;50.448;18.824;2023-11-19T02:18:39;98081.69;;;0.29;75.75
67397;BME280;57728;50.448;18.824;2023-11-19T02:20:40;98161.97;;;0.80;75.81
67397;BME280;57728;50.448;18.824;2023-11-19T02:22:43;98160.13;;;0.80;75.84
67397;BME280;57728;50.448;18.824;2023-11-19T02:24:51;98154.59;;;0.82;75.87
67397;BME280;57728;50.448;18.824;2023-11-19T02:27:42;98146.56;;;0.82;75.82
67397;BME280;57728;50.448;18.824;2023-11-19T02:29:43;98148.25;;;0.83;76.11
67397;BME280;57728;50.448;18.824;2023-11-19T02:31:45;98138.88;;;0.87;75.99
67397;BME280;57728;50.448;18.824;2023-11-19T02:33:47;98114.72;;;0.79;76.04
67397;BME280;57728;50.448;18.824;2023-11-19T02:35:50;98128.97;;;0.88;75.87
67397;BME280;57728;50.448;18.824;2023-11-19T02:37:54;98116.06;;;0.75;75.75
67397;BME280;57728;50.448;18.824;2023-11-19T02:39:55;98121.44;;;0.83;76.06
67397;BME280;57728;50.448;18.824;2023-11-19T02:41:57;98123.28;;;0.82;75.98
67397;BME280;57728;50.448;18.824;2023-11-19T02:43:59;98123.47;;;0.81;75.83
67397;BME280;57728;50.448;18.824;2023-11-19T02:46:01;98079.72;;;0.64;76.21
67397;BME280;57728;50.448;18.824;2023-11-19T02:48:04;98094.31;;;0.78;76.06
67397;BME280;57728;50.448;18.824;2023-11-19T02:50:10;98052.41;;;0.52;76.19
67397;BME280;57728;50.448;18.824;2023-11-19T02:52:15;98070.53;;;0.58;76.16
67397;BME280;57728;50.448;18.824;2023-11-19T02:54:16;98090.13;;;0.75;76.36
67397;BME280;57728;50.448;18.824;2023-11-19T02:56:19;98015.22;;;0.32;76.31
67397;BME280;57728;50.448;18.824;2023-11-19T02:58:27;98085.06;;;0.72;76.36
67397;BME280;57728;50.448;18.824;2023-11-19T03:00:29;98077.53;;;0.59;76.48
67397;BME280;57728;50.448;18.824;2023-11-19T03:02:40;98010.50;;;0.10;76.45
67397;BME280;57728;50.448;18.824;2023-11-19T03:04:48;98102.66;;;0.66;76.48
67397;BME280;57728;50.448;18.824;2023-11-19T03:06:49;98104.50;;;0.66;76.72
67397;BME280;57728;50.448;18.824;2023-11-19T03:08:51;98110.69;;;0.66;76.74
67397;BME280;57728;50.448;18.824;2023-11-19T03:10:53;98097.16;;;0.60;76.75
67397;BME280;57728;50.448;18.824;2023-11-19T03:12:54;98087.41;;;0.59;76.83
67397;BME280;57728;50.448;18.824;2023-11-19T03:14:58;98093.31;;;0.62;76.94
67397;BME280;57728;50.448;18.824;2023-11-19T03:16:59;98087.59;;;0.65;76.69
67397;BME280;57728;50.448;18.824;2023-11-19T03:19:01;98091.94;;;0.75;76.55
67397;BME280;57728;50.448;18.824;2023-11-19T03:21:03;98066.81;;;0.59;76.48
67397;BME280;57728;50.448;18.824;2023-11-19T03:23:04;98050.09;;;0.57;76.58
67397;BME280;57728;50.448;18.824;2023-11-19T03:25:07;98060.81;;;0.65;76.63
67397;BME280;57728;50.448;18.824;2023-11-19T03:27:10;98051.25;;;0.63;76.55
67397;BME280;57728;50.448;18.824;2023-11-19T03:29:12;98032.00;;;0.51;76.58
67397;BME280;57728;50.448;18.824;2023-11-19T03:31:13;98045.38;;;0.59;76.56
67397;BME280;57728;50.448;18.824;2023-11-19T03:33:15;98036.69;;;0.57;76.58
67397;BME280;57728;50.448;18.824;2023-11-19T03:35:16;97978.41;;;0.26;76.69
67397;BME280;57728;50.448;18.824;2023-11-19T03:37:17;98006.88;;;0.52;76.80
67397;BME280;57728;50.448;18.824;2023-11-19T03:39:19;98053.44;;;0.84;76.78
67397;BME280;57728;50.448;18.824;2023-11-19T03:41:21;98015.56;;;0.71;76.58
67397;BME280;57728;50.448;18.824;2023-11-19T03:43:22;98024.13;;;0.82;76.55
67397;BME280;57728;50.448;18.824;2023-11-19T03:45:24;98028.63;;;0.82;76.37
67397;BME280;57728;50.448;18.824;2023-11-19T03:47:25;98028.63;;;0.82;76.56
67397;BME280;57728;50.448;18.824;2023-11-19T03:49:27;97961.19;;;0.37;76.35
67397;BME280;57728;50.448;18.824;2023-11-19T03:51:29;97988.81;;;0.54;76.53
67397;BME280;57728;50.448;18.824;2023-11-19T03:53:30;98006.53;;;0.72;76.54
67397;BME280;57728;50.448;18.824;2023-11-19T03:55:32;97999.19;;;0.74;76.49
67397;BME280;57728;50.448;18.824;2023-11-19T03:57:34;97997.50;;;0.73;76.69
67397;BME280;57728;50.448;18.824;2023-11-19T03:59:36;97981.41;;;0.73;76.50
67397;BME280;57728;50.448;18.824;2023-11-19T04:01:37;97995.47;;;0.83;76.45
67397;BME280;57728;50.448;18.824;2023-11-19T04:03:39;98007.53;;;0.95;76.63
67397;BME280;57728;50.448;18.824;2023-11-19T04:05:41;97983.06;;;0.90;76.54
67397;BME280;57728;50.448;18.824;2023-11-19T04:07:42;97977.88;;;0.89;76.20
67397;BME280;57728;50.448;18.824;2023-11-19T04:09:44;97957.47;;;0.79;76.19
67397;BME280;57728;50.448;18.824;2023-11-19T04:11:47;98003.16;;;1.02;76.29
67397;BME280;57728;50.448;18.824;2023-11-19T04:13:49;98020.22;;;1.10;76.16
67397;BME280;57728;50.448;18.824;2023-11-19T04:15:51;97980.03;;;0.93;76.05
67397;BME280;57728;50.448;18.824;2023-11-19T04:17:52;97975.00;;;0.98;76.09
67397;BME280;57728;50.448;18.824;2023-11-19T04:19:53;97988.03;;;1.18;76.07
67397;BME280;57728;50.448;18.824;2023-11-19T04:21:55;97938.34;;;0.91;75.79
67397;BME280;57728;50.448;18.824;2023-11-19T04:23:57;97973.63;;;1.11;75.86
67397;BME280;57728;50.448;18.824;2023-11-19T04:26:02;97936.84;;;0.88;75.75
67397;BME280;57728;50.448;18.824;2023-11-19T04:28:05;97912.56;;;0.73;75.89
67397;BME280;57728;50.448;18.824;2023-11-19T04:30:07;97961.22;;;1.10;75.71
67397;BME280;57728;50.448;18.824;2023-11-19T04:32:10;97926.94;;;0.89;75.70
67397;BME280;57728;50.448;18.824;2023-11-19T04:34:13;97952.84;;;1.05;75.82
67397;BME280;57728;50.448;18.824;2023-11-19T04:36:18;97956.56;;;1.03;75.80
67397;BME280;57728;50.448;18.824;2023-11-19T04:38:20;97926.47;;;0.85;75.83
67397;BME280;57728;50.448;18.824;2023-11-19T04:40:23;97868.59;;;0.51;76.05
67397;BME280;57728;50.448;18.824;2023-11-19T04:42:24;97954.25;;;1.00;75.92
67397;BME280;57728;50.448;18.824;2023-11-19T04:44:25;97943.53;;;0.92;76.07
67397;BME280;57728;50.448;18.824;2023-11-19T04:46:27;97938.84;;;0.86;75.90
67397;BME280;57728;50.448;18.824;2023-11-19T04:48:29;97963.94;;;1.01;75.87
67397;BME280;57728;50.448;18.824;2023-11-19T04:50:30;97946.56;;;0.89;76.15
67397;BME280;57728;50.448;18.824;2023-11-19T04:52:32;97955.72;;;1.03;76.14
67397;BME280;57728;50.448;18.824;2023-11-19T04:54:33;97942.47;;;1.01;76.09
67397;BME280;57728;50.448;18.824;2023-11-19T04:56:37;97848.81;;;0.44;75.97
67397;BME280;57728;50.448;18.824;2023-11-19T04:58:39;97910.69;;;0.82;76.08
67397;BME280;57728;50.448;18.824;2023-11-19T05:00:40;97916.22;;;0.89;75.98
67397;BME280;57728;50.448;18.824;2023-11-19T05:02:42;97914.38;;;0.89;76.06
67397;BME280;57728;50.448;18.824;2023-11-19T05:04:44;97929.25;;;1.00;76.23
67397;BME280;57728;50.448;18.824;2023-11-19T05:06:45;97903.97;;;0.94;76.25
67397;BME280;57728;50.448;18.824;2023-11-19T05:08:46;97915.81;;;1.08;76.13
67397;BME280;57728;50.448;18.824;2023-11-19T05:10:48;97913.97;;;1.09;76.13
67397;BME280;57728;50.448;18.824;2023-11-19T05:12:50;97893.22;;;1.02;75.98
67397;BME280;57728;50.448;18.824;2023-11-19T05:14:52;97879.66;;;1.04;75.93
67397;BME280;57728;50.448;18.824;2023-11-19T05:16:54;97884.47;;;1.09;76.08
67397;BME280;57728;50.448;18.824;2023-11-19T05:18:55;97885.50;;;1.08;76.08
67397;BME280;57728;50.448;18.824;2023-11-19T05:20:56;97873.09;;;1.07;75.94
67397;BME280;57728;50.448;18.824;2023-11-19T05:22:59;97853.91;;;0.95;75.89
67397;BME280;57728;50.448;18.824;2023-11-19T05:25:01;97878.44;;;1.15;75.98
67397;BME280;57728;50.448;18.824;2023-11-19T05:27:04;97866.03;;;1.14;75.94
67397;BME280;57728;50.448;18.824;2023-11-19T05:29:06;97856.97;;;1.15;75.97
67397;BME280;57728;50.448;18.824;2023-11-19T05:31:07;97770.31;;;0.51;75.87
67397;BME280;57728;50.448;18.824;2023-11-19T05:33:08;97842.28;;;1.02;75.79
67397;BME280;57728;50.448;18.824;2023-11-19T05:35:11;97807.69;;;0.76;75.78
67397;BME280;57728;50.448;18.824;2023-11-19T05:37:12;97740.25;;;0.33;75.70
67397;BME280;57728;50.448;18.824;2023-11-19T05:39:14;97873.09;;;1.07;75.81
67397;BME280;57728;50.448;18.824;2023-11-19T05:41:16;97849.72;;;0.92;75.79
67397;BME280;57728;50.448;18.824;2023-11-19T05:43:17;97858.00;;;1.06;75.87
67397;BME280;57728;50.448;18.824;2023-11-19T05:45:18;97843.16;;;0.95;75.73
67397;BME280;57728;50.448;18.824;2023-11-19T05:47:20;97865.75;;;1.00;75.91
67397;BME280;57728;50.448;18.824;2023-11-19T05:49:21;97850.56;;;0.84;75.92
67397;BME280;57728;50.448;18.824;2023-11-19T05:51:22;97786.56;;;0.50;76.12
67397;BME280;57728;50.448;18.824;2023-11-19T05:53:28;97870.28;;;1.00;76.20
67397;BME280;57728;50.448;18.824;2023-11-19T05:55:30;97870.09;;;1.01;76.23
67397;BME280;57728;50.448;18.824;2023-11-19T05:57:32;97864.38;;;1.05;76.21
67397;BME280;57728;50.448;18.824;2023-11-19T05:59:36;97868.75;;;1.06;76.16
67397;BME280;57728;50.448;18.824;2023-11-19T06:01:38;97849.72;;;0.92;76.16
67397;BME280;57728;50.448;18.824;2023-11-19T06:03:42;97854.38;;;0.98;76.09
67397;BME280;57728;50.448;18.824;2023-11-19T06:05:45;97815.44;;;0.71;76.06
67397;BME280;57728;50.448;18.824;2023-11-19T06:07:47;97862.91;;;1.02;76.12
67397;BME280;57728;50.448;18.824;2023-11-19T06:09:48;97832.47;;;0.87;76.17
67397;BME280;57728;50.448;18.824;2023-11-19T06:11:51;97831.31;;;0.89;76.11
67397;BME280;57728;50.448;18.824;2023-11-19T06:13:53;97848.00;;;0.99;76.32
67397;BME280;57728;50.448;18.824;2023-11-19T06:15:54;97853.50;;;1.06;76.33
67397;BME280;57728;50.448;18.824;2023-11-19T06:17:56;97856.84;;;1.08;76.53
67397;BME280;57728;50.448;18.824;2023-11-19T06:20:00;97842.25;;;1.11;76.47
67397;BME280;57728;50.448;18.824;2023-11-19T06:22:01;97826.91;;;0.96;76.57
67397;BME280;57728;50.448;18.824;2023-11-19T06:24:04;97843.97;;;1.03;76.36
67397;BME280;57728;50.448;18.824;2023-11-19T06:26:05;97842.94;;;1.05;76.47
67397;BME280;57728;50.448;18.824;2023-11-19T06:28:08;97840.22;;;1.13;76.58
67397;BME280;57728;50.448;18.824;2023-11-19T06:30:10;97830.44;;;1.20;76.39
67397;BME280;57728;50.448;18.824;2023-11-19T06:32:12;97817.59;;;1.15;76.60
67397;BME280;57728;50.448;18.824;2023-11-19T06:34:13;97830.41;;;1.28;76.37
67397;BME280;57728;50.448;18.824;2023-11-19T06:36:16;97781.94;;;1.07;76.40
67397;BME280;57728;50.448;18.824;2023-11-19T06:38:17;97808.97;;;1.28;76.32
67397;BME280;57728;50.448;18.824;2023-11-19T06:40:18;97822.47;;;1.43;76.28
67397;BME280;57728;50.448;18.824;2023-11-19T06:42:20;97790.31;;;1.35;76.07
67397;BME280;57728;50.448;18.824;2023-11-19T06:44:22;97811.53;;;1.45;76.09
67397;BME280;57728;50.448;18.824;2023-11-19T06:46:23;97797.75;;;1.48;76.18
67397;BME280;57728;50.448;18.824;2023-11-19T06:48:25;97768.69;;;1.36;75.89
67397;BME280;57728;50.448;18.824;2023-11-19T06:50:26;97731.31;;;1.12;76.02
67397;BME280;57728;50.448;18.824;2023-11-19T06:52:27;97739.47;;;1.18;76.06
67397;BME280;57728;50.448;18.824;2023-11-19T06:54:29;97679.25;;;0.75;75.93
67397;BME280;57728;50.448;18.824;2023-11-19T06:56:31;97784.03;;;1.43;76.05
67397;BME280;57728;50.448;18.824;2023-11-19T06:58:36;97781.19;;;1.44;76.04
67397;BME280;57728;50.448;18.824;2023-11-19T07:00:38;97743.28;;;1.24;75.81
67397;BME280;57728;50.448;18.824;2023-11-19T07:02:39;97709.72;;;1.05;75.76
67397;BME280;57728;50.448;18.824;2023-11-19T07:04:41;97788.34;;;1.52;76.09
67397;BME280;57728;50.448;18.824;2023-11-19T07:06:43;97780.31;;;1.52;75.90
67397;BME280;57728;50.448;18.824;2023-11-19T07:08:44;97774.25;;;1.50;76.10
67397;BME280;57728;50.448;18.824;2023-11-19T07:10:45;97756.56;;;1.41;76.19
67397;BME280;57728;50.448;18.824;2023-11-19T07:12:49;97694.88;;;0.94;76.06
67397;BME280;57728;50.448;18.824;2023-11-19T07:14:51;97771.88;;;1.55;76.44
67397;BME280;57728;50.448;18.824;2023-11-19T07:16:52;97714.97;;;1.22;76.18
67397;BME280;57728;50.448;18.824;2023-11-19T07:18:55;97761.47;;;1.60;76.46
67397;BME280;57728;50.448;18.824;2023-11-19T07:20:58;97770.81;;;1.64;76.50
67397;BME280;57728;50.448;18.824;2023-11-19T07:23:00;97726.47;;;1.30;76.58
67397;BME280;57728;50.448;18.824;2023-11-19T07:25:02;97793.88;;;1.74;76.59
67397;BME280;57728;50.448;18.824;2023-11-19T07:27:03;97768.97;;;1.65;76.16
67397;BME280;57728;50.448;18.824;2023-11-19T07:29:05;97777.59;;;1.75;76.30
67397;BME280;57728;50.448;18.824;2023-11-19T07:31:09;97744.69;;;1.58;76.30
67397;BME280;57728;50.448;18.824;2023-11-19T07:33:10;97755.28;;;1.75;76.45
67397;BME280;57728;50.448;18.824;2023-11-19T07:35:11;97724.06;;;1.59;76.40
67397;BME280;57728;50.448;18.824;2023-11-19T07:37:13;97731.69;;;1.70;76.45
67397;BME280;57728;50.448;18.824;2023-11-19T07:39:14;97740.50;;;1.79;76.52
67397;BME280;57728;50.448;18.824;2023-11-19T07:41:15;97745.50;;;1.82;76.43
67397;BME280;57728;50.448;18.824;2023-11-19T07:43:18;97748.47;;;1.87;76.51
67397;BME280;57728;50.448;18.824;2023-11-19T07:45:19;97671.13;;;1.52;76.47
67397;BME280;57728;50.448;18.824;2023-11-19T07:47:20;97726.56;;;1.98;76.38
67397;BME280;57728;50.448;18.824;2023-11-19T07:49:24;97718.41;;;2.06;76.08
67397;BME280;57728;50.448;18.824;2023-11-19T07:51:25;97656.34;;;1.71;75.83
67397;BME280;57728;50.448;18.824;2023-11-19T07:53:27;97695.63;;;2.02;75.52
67397;BME280;57728;50.448;18.824;2023-11-19T07:55:29;97647.19;;;1.81;75.35
67397;BME280;57728;50.448;18.824;2023-11-19T07:57:31;97667.50;;;1.98;75.38
67397;BME280;57728;50.448;18.824;2023-11-19T07:59:32;97605.91;;;1.52;75.34
67397;BME280;57728;50.448;18.824;2023-11-19T08:01:34;97703.31;;;2.20;75.29
67397;BME280;57728;50.448;18.824;2023-11-19T08:03:35;97698.69;;;2.29;75.62
67397;BME280;57728;50.448;18.824;2023-11-19T08:05:36;97698.56;;;2.37;75.33
67397;BME280;57728;50.448;18.824;2023-11-19T08:07:38;97694.50;;;2.41;74.94
67397;BME280;57728;50.448;18.824;2023-11-19T08:09:39;97684.41;;;2.44;74.81
67397;BME280;57728;50.448;18.824;2023-11-19T08:11:41;97600.66;;;1.88;74.50
67397;BME280;57728;50.448;18.824;2023-11-19T08:13:43;97663.97;;;2.28;74.72
67397;BME280;57728;50.448;18.824;2023-11-19T08:15:44;97638.66;;;2.22;74.80
67397;BME280;57728;50.448;18.824;2023-11-19T08:17:47;97687.34;;;2.49;74.87
67397;BME280;57728;50.448;18.824;2023-11-19T08:19:48;97669.28;;;2.43;74.52
67397;BME280;57728;50.448;18.824;2023-11-19T08:21:50;97689.31;;;2.55;74.50
67397;BME280;57728;50.448;18.824;2023-11-19T08:23:51;97662.06;;;2.43;74.42
67397;BME280;57728;50.448;18.824;2023-11-19T08:25:54;97671.22;;;2.49;73.96
67397;BME280;57728;50.448;18.824;2023-11-19T08:27:55;97665.84;;;2.49;73.79
67397;BME280;57728;50.448;18.824;2023-11-19T08:29:56;97678.28;;;2.50;73.47
67397;BME280;57728;50.448;18.824;2023-11-19T08:32:00;97676.50;;;2.57;73.70
67397;BME280;57728;50.448;18.824;2023-11-19T08:34:04;97673.63;;;2.58;73.40
67397;BME280;57728;50.448;18.824;2023-11-19T08:36:17;97663.91;;;2.57;73.22
67397;BME280;57728;50.448;18.824;2023-11-19T08:38:19;97632.81;;;2.33;73.32
67397;BME280;57728;50.448;18.824;2023-11-19T08:40:20;97665.75;;;2.57;73.18
67397;BME280;57728;50.448;18.824;2023-11-19T08:42:22;97677.78;;;2.61;73.38
67397;BME280;57728;50.448;18.824;2023-11-19T08:44:24;97652.25;;;2.50;73.25
67397;BME280;57728;50.448;18.824;2023-11-19T08:46:25;97651.69;;;2.55;72.71
67397;BME280;57728;50.448;18.824;2023-11-19T08:48:27;97657.69;;;2.57;72.84
67397;BME280;57728;50.448;18.824;2023-11-19T08:50:30;97611.06;;;2.28;72.76
67397;BME280;57728;50.448;18.824;2023-11-19T08:52:32;97589.72;;;2.41;72.50
67397;BME280;57728;50.448;18.824;2023-11-19T08:54:33;97632.06;;;2.76;72.41
67397;BME280;57728;50.448;18.824;2023-11-19T08:56:35;97618.47;;;2.63;72.37
67397;BME280;57728;50.448;18.824;2023-11-19T08:58:36;97580.06;;;2.47;72.02
67397;BME280;57728;50.448;18.824;2023-11-19T09:00:37;97588.66;;;2.57;72.04
67397;BME280;57728;50.448;18.824;2023-11-19T09:02:40;97625.47;;;2.79;72.20
67397;BME280;57728;50.448;18.824;2023-11-19T09:04:41;97569.13;;;2.49;71.97
67397;BME280;57728;50.448;18.824;2023-11-19T09:06:42;97552.66;;;2.37;71.78
67397;BME280;57728;50.448;18.824;2023-11-19T09:08:45;97629.69;;;2.88;71.76
67397;BME280;57728;50.448;18.824;2023-11-19T09:10:46;97627.66;;;2.90;71.69
67397;BME280;57728;50.448;18.824;2023-11-19T09:12:47;97603.31;;;2.77;71.54
67397;BME280;57728;50.448;18.824;2023-11-19T09:14:49;97573.34;;;2.58;71.28
67397;BME280;57728;50.448;18.824;2023-11-19T09:16:50;97624.19;;;2.96;71.26
67397;BME280;57728;50.448;18.824;2023-11-19T09:18:51;97615.72;;;2.99;71.19
67397;BME280;57728;50.448;18.824;2023-11-19T09:20:53;97625.09;;;3.03;71.25
67397;BME280;57728;50.448;18.824;2023-11-19T09:22:55;97602.56;;;3.04;70.91
67397;BME280;57728;50.448;18.824;2023-11-19T09:24:56;97595.09;;;3.06;70.95
67397;BME280;57728;50.448;18.824;2023-11-19T09:27:01;97599.06;;;3.10;70.89
67397;BME280;57728;50.448;18.824;2023-11-19T09:29:02;97591.88;;;3.18;70.74
67397;BME280;57728;50.448;18.824;2023-11-19T09:31:12;97575.72;;;3.11;70.38
67397;BME280;57728;50.448;18.824;2023-11-19T09:33:18;97544.53;;;2.95;70.07
67397;BME280;57728;50.448;18.824;2023-11-19T09:35:21;97569.28;;;3.12;69.82
67397;BME280;57728;50.448;18.824;2023-11-19T09:37:24;97555.28;;;3.17;70.05
67397;BME280;57728;50.448;18.824;2023-11-19T09:39:27;97575.66;;;3.33;70.00
67397;BME280;57728;50.448;18.824;2023-11-19T09:41:30;97575.06;;;3.37;69.36
67397;BME280;57728;50.448;18.824;2023-11-19T09:43:36;97565.38;;;3.43;69.89
67397;BME280;57728;50.448;18.824;2023-11-19T09:45:49;97552.19;;;3.48;69.47
67397;BME280;57728;50.448;18.824;2023-11-19T09:47:53;97545.56;;;3.51;69.62
67397;BME280;57728;50.448;18.824;2023-11-19T09:49:58;97476.66;;;3.21;69.22
67397;BME280;57728;50.448;18.824;2023-11-19T09:52:00;97503.69;;;3.41;69.34
67397;BME280;57728;50.448;18.824;2023-11-19T09:54:02;97553.97;;;3.69;69.16
67397;BME280;57728;50.448;18.824;2023-11-19T09:56:05;97524.31;;;3.63;68.81
67397;BME280;57728;50.448;18.824;2023-11-19T09:58:07;97535.13;;;3.69;68.66
67397;BME280;57728;50.448;18.824;2023-11-19T10:00:10;97524.56;;;3.68;68.82
67397;BME280;57728;50.448;18.824;2023-11-19T10:02:14;97497.13;;;3.57;68.60
67397;BME280;57728;50.448;18.824;2023-11-19T10:04:18;97507.53;;;3.67;68.82
67397;BME280;57728;50.448;18.824;2023-11-19T10:06:20;97507.53;;;3.67;68.86
67397;BME280;57728;50.448;18.824;2023-11-19T10:08:22;97484.28;;;3.53;68.93
67397;BME280;57728;50.448;18.824;2023-11-19T10:10:27;97394.94;;;2.87;69.01
67397;BME280;57728;50.448;18.824;2023-11-19T10:12:29;97473.63;;;3.31;69.33
67397;BME280;57728;50.448;18.824;2023-11-19T10:14:31;97505.75;;;3.39;69.74
67397;BME280;57728;50.448;18.824;2023-11-19T10:16:34;97398.38;;;2.74;69.93
67397;BME280;57728;50.448;18.824;2023-11-19T10:18:36;97487.44;;;3.21;70.50
67397;BME280;57728;50.448;18.824;2023-11-19T10:20:41;97473.09;;;3.14;71.04
67397;BME280;57728;50.448;18.824;2023-11-19T10:22:44;97433.34;;;2.74;71.28
67397;BME280;57728;50.448;18.824;2023-11-19T10:24:46;97390.13;;;2.48;71.73
67397;BME280;57728;50.448;18.824;2023-11-19T10:26:47;97467.56;;;2.94;72.15
67397;BME280;57728;50.448;18.824;2023-11-19T10:28:49;97471.50;;;2.91;72.42
67397;BME280;57728;50.448;18.824;2023-11-19T10:30:56;97458.25;;;2.90;72.57
67397;BME280;57728;50.448;18.824;2023-11-19T10:33:11;97420.97;;;2.52;72.96
67397;BME280;57728;50.448;18.824;2023-11-19T10:35:19;97408.59;;;2.57;72.91
67397;BME280;57728;50.448;18.824;2023-11-19T10:37:29;97335.31;;;2.14;73.24
67397;BME280;57728;50.448;18.824;2023-11-19T10:39:52;97390.81;;;2.56;73.54
67397;BME280;57728;50.448;18.824;2023-11-19T10:42:15;97374.69;;;2.56;73.71
67397;BME280;57728;50.448;18.824;2023-11-19T10:44:35;97424.06;;;2.84;73.91
67397;BME280;57728;50.448;18.824;2023-11-19T10:46:41;97334.44;;;2.35;74.11
67397;BME280;57728;50.448;18.824;2023-11-19T10:48:45;97424.31;;;2.89;74.45